Sheep Springs, NM

1:43 AM MDT on September 18, 2014 (GMT -0600)
Four Corners Regional | Change Station
CLOSE
Current Station
Airport
Location: Farmington,
Elevation: 5502 ft
Nearby Weather Stations

Elev 5502 ft 36.74 °N, 108.23 °W | Updated 50 minutes ago

Clear
Clear
62 °F
Feels Like 62 °F
N
6
Wind Variable Wind from ENE

Today
High -- | Low -- °F
--% Chance of Precip.
Yesterday
High -- | Low -- °F
Precip. -- in
6:59 AM 7:17 PM
Waning Crescent, 29% visible
Pressure 29.95 in
Visibility 10.0 miles
Clouds Clear
Dew Point 47 °F
Humidity 58%
Rainfall 0.00 in
Snow Depth Not available.
UV 0 out of 12
Pollen 6.30 out of 12
Air Quality Not available.
Flu Activity Not available.
METAR KFMN 180653Z AUTO 06005KT 10SM CLR 17/08 A3011 RMK AO2 SLP142 T01670083 402720167

More Conditions Fewer Conditions

Pressure 29.95 in
Visibility 10.0 miles
Clouds Clear
Dew Point 47 °F
Humidity 58%
Rainfall 0.00 in
Snow Depth Not available.
UV 0 out of 12
Pollen 6.30 out of 12
Air Quality Not available.
Flu Activity Not available.
METAR KFMN 180653Z AUTO 06005KT 10SM CLR 17/08 A3011 RMK AO2 SLP142 T01670083 402720167

More Conditions Fewer Conditions

10-Day Weather Forecast

Almanac

Astronomy

Sep. 18, 2014 Rise Set
Actual Time 6:59 AM MDT 7:17 PM MDT
Civil Twilight 6:33 AM MDT 7:43 PM MDT
Nautical Twilight 6:03 AM MDT 8:13 PM MDT
Astronomical Twilight 5:33 AM MDT 8:43 PM MDT
Moon 2:01 AM MDT 4:04 PM MDT
Length of Visible Light 13h 09m
Length of Day
12h 17m
Tomorrow will be 2m 16s shorter.
Waning Crescent, 29% of the Moon is Illuminated
Today
Waning Crescent
Sep 24
New
Oct 1
First Quarter
Oct 8
Full
Oct 15
Last Quarter

Today's Extremes

State Highs State Lows

Community

WunderPhotos

Upload Photos

1,754,299 photos uploaded!

Nearby

Snow Depth

Station Depth Elevation
North Costilla 1 in 10600 ft
Santa Fe 1 in 11445 ft
Chamita 0 in 8400 ft
Gallegos Peak 0 in 9800 ft
Rice Park 0 in 8460 ft

Earthquake Activity

City Distance Mag. Time & Date
No recent earthquake activity has been reported nearby.
Minimum magnitude displayed is 2.5.

Coastal Water Temperatures

Place Temperature
No Stations Reporting

Nearby Weather Stations